Flight Track Log - Related Links

Times and Time Zones

All times are in EDT time to prevent confusion due to time zone crossing. See the SWA1718 flight status page for this flight to view local times or setup timezone preferences in your user account.

Time Position Orientation Groundspeed Altitude Reporting Facility
EDT Latitude Longitude Course Direction KTS MPH feet Rate Location/Type
Wed 03:30:43 PM 32.8333 -96.8333 301° West 157 181 1,700  Level Dallas / Fort Worth TRACON
Wed 03:31:43 PM 32.7833 -96.7833 140° Southeast 215 247 4,300 2,421 Climbing Dallas / Fort Worth TRACON
Wed 03:32:37 PM 32.7500 -96.7333 128° Southeast 226 260 6,300 2,158 Climbing Dallas / Fort Worth TRACON
Wed 03:33:37 PM 32.6833 -96.7667 203° Southwest 229 264 8,400 1,850 Climbing Dallas / Fort Worth TRACON
Wed 03:34:37 PM 32.6333 -96.8000 209° Southwest 245 282 10,000 1,537 Climbing Dallas / Fort Worth TRACON
Wed 03:35:38 PM 32.5833 -96.8667 228° Southwest 323 372 11,500 1,869 Climbing Dallas / Fort Worth TRACON
Wed 03:36:00 PM 33.0817 -97.3134 301° West  Level FlightAware Approximate
Wed 03:36:39 PM 32.6197 -96.9522 297° West 361 415 13,800  Level Fort Worth Center
Wed 03:37:39 PM 32.6742 -97.0433 305° West 379 436 15,500 2,100 Climbing Fort Worth Center
Wed 03:38:39 PM 32.7433 -97.1589 305° West 379 436 18,000 2,350 Climbing Fort Worth Center
Wed 03:39:39 PM 32.8144 -97.2750 306° West 384 442 20,200 2,150 Climbing Fort Worth Center
Wed 03:40:39 PM 32.8708 -97.3689 306° West 384 442 22,300 1,400 Climbing Fort Worth Center
Wed 03:41:39 PM 32.9419 -97.4853 306° West 391 450 23,000 1,200 Climbing Fort Worth Center
Wed 03:42:39 PM 33.0106 -97.6042 305° West 415 478 24,700 1,600 Climbing Fort Worth Center
Wed 03:43:39 PM 33.0772 -97.7158 305° West 420 483 26,200 1,700 Climbing Fort Worth Center
Wed 03:44:39 PM 33.1228 -97.8350 295° West 404 465 28,100 1,450 Climbing Fort Worth Center
Wed 03:45:39 PM 33.1619 -97.9569 291° West 399 459 29,100 1,300 Climbing Fort Worth Center
Wed 03:46:39 PM 33.2031 -98.0864 291° West 404 465 30,700 1,450 Climbing Fort Worth Center
Wed 03:47:39 PM 33.2400 -98.2058 290° West 398 458 32,000 650 Climbing Fort Worth Center
Wed 03:48:39 PM 33.2747 -98.3228 290° West 382 440 32,000  Level Fort Worth Center
Wed 03:49:39 PM 33.3072 -98.4225 291° West 371 427 32,000  Level Fort Worth Center
Wed 03:50:39 PM 33.3481 -98.5450 292° West 364 419 32,000  Level Fort Worth Center
Wed 03:51:39 PM 33.3803 -98.6572 289° West 364 419 32,000  Level Fort Worth Center
Wed 03:52:39 PM 33.4147 -98.7722 290° West 369 425 32,000  Level Fort Worth Center
Wed 03:53:39 PM 33.4489 -98.8847 290° West 364 419 32,000  Level Fort Worth Center
Wed 03:54:39 PM 33.4850 -98.9950 291° West 364 419 32,000  Level Fort Worth Center
Wed 03:55:39 PM 33.5189 -99.1103 289° West 364 419 32,000  Level Fort Worth Center
Wed 03:56:39 PM 33.5508 -99.2231 289° West 364 419 32,000  Level Fort Worth Center
Wed 03:57:39 PM 33.5867 -99.3383 290° West 369 425 32,000  Level Fort Worth Center
Wed 03:58:39 PM 33.6267 -99.4492 293° West 369 425 32,000  Level Fort Worth Center
Wed 03:59:39 PM 33.7064 -99.5433 316° Northwest 374 430 32,000  Level Fort Worth Center
Wed 04:00:39 PM 33.7864 -99.6353 316° Northwest 388 447 32,000  Level Fort Worth Center
Wed 04:01:39 PM 33.8703 -99.7250 318° Northwest 394 453 32,000  Level Fort Worth Center
Wed 04:02:39 PM 33.9478 -99.8147 316° Northwest 399 459 32,000  Level Fort Worth Center
Wed 04:03:39 PM 34.0275 -99.9019 318° Northwest 394 453 32,000  Level Fort Worth Center
Wed 04:04:39 PM 34.1069 -99.9919 317° Northwest 394 453 32,000  Level Fort Worth Center
Wed 04:05:39 PM 34.1847 -100.0747 319° Northwest 389 448 32,000  Level Fort Worth Center
Wed 04:06:39 PM 34.2600 -100.1650 315° West 389 448 32,000 -302 Level Fort Worth Center
Wed 04:08:18 PM 34.3825 -100.3056 317° Northwest 379 436 31,200 -1,342 Descending Albuquerque Center
Wed 04:09:20 PM 34.4428 -100.4078 306° West 374 430 28,400 -2,565 Descending Albuquerque Center
Wed 04:10:22 PM 34.5081 -100.5089 308° West 378 435 25,900 -2,081 Descending Albuquerque Center
Wed 04:11:24 PM 34.5706 -100.6097 307° West 377 434 24,100 -1,645 Descending Albuquerque Center
Wed 04:12:26 PM 34.6403 -100.7242 307° West 359 413 22,500 -2,032 Descending Albuquerque Center
Wed 04:13:28 PM 34.7000 -100.8197 307° West 355 409 19,900 -2,537 Descending Albuquerque Center
Wed 04:14:29 PM 34.7603 -100.9167 307° West 358 412 17,300 -2,390 Descending Albuquerque Center
Wed 04:15:31 PM 34.7967 -101.0244 292° West 348 400 15,000 -2,081 Descending Albuquerque Center
Wed 04:16:33 PM 34.8300 -101.1306 291° West 338 389 13,000 -1,887 Descending Albuquerque Center
Wed 04:17:35 PM 34.8628 -101.2328 291° West 330 380 11,100 -1,500 Descending Albuquerque Center
Wed 04:18:37 PM 34.8928 -101.3306 291° West 317 365 9,900 -1,548 Descending Albuquerque Center
Wed 04:19:39 PM 34.9264 -101.4369 291° West 297 342 7,900 -1,597 Descending Albuquerque Center
Wed 04:20:41 PM 34.9539 -101.5228 291° West 283 326 6,600 -1,073 Descending Albuquerque Center
Wed 04:21:42 PM 34.9792 -101.6050 291° West 270 311 5,700 -634 Descending Albuquerque Center
Wed 04:22:44 PM 35.0000 -101.6833 288° West 263 303 5,300 -194 Descending Albuquerque Center
Wed 04:23:46 PM 35.0206 -101.7608 288° West 246 283 5,300  Level Albuquerque Center
Wed 04:24:48 PM 35.0400 -101.8397 287° West 242 278 5,300  Level Albuquerque Center
Wed 04:25:50 PM 35.0906 -101.8806 327° Northwest 250 288 5,300  Level Albuquerque Center
Wed 04:26:52 PM 35.1281 -101.8286 49° Northeast 221 254 5,300 -290 Level Albuquerque Center
Wed 04:27:54 PM 35.1686 -101.7783 45° Northeast 192 221 4,700 -629 Descending Albuquerque Center
Wed 04:28:56 PM 35.1925 -101.7483 46° Northeast 150 173 4,000 -532 Descending Albuquerque Center
Wed 04:29:58 PM 35.2164 -101.7183 46° Northeast 133 153 3,600 -387 Descending Albuquerque Center

Login

Don't have an account? Register now (free) for customized features, flight alerts, and more!